Time;durP1;ratioP1;P1;durP2;ratioP2;P2;SDS_P1;SDS_P2;PMS_P1;PMS_P2;Temp;Humidity;BMP_temperature;BMP_pressure;BME280_temperature;BME280_humidity;BME280_pressure;Samples;Min_cycle;Max_cycle;Signal;HPM_P1;HPM_P2
2022/08/22 00:01:01;;;;;;;15.37;10.53;;;;;;;23.72;77.07;96300.13;5090225;28;20783;-77
2022/08/22 00:04:22;;;;;;;13.73;9.57;;;;;;;23.78;75.50;96302.91;5087395;28;20191;-78
2022/08/22 00:07:09;;;;;;;13.90;9.53;;;;;;;23.64;75.81;96300.16;5069212;28;20280;-77
2022/08/22 00:10:37;;;;;;;13.70;9.33;;;;;;;23.63;75.99;96299.31;5071100;28;20189;-78
2022/08/22 00:14:06;;;;;;;16.20;9.00;;;;;;;23.40;76.20;96301.00;5085609;28;20189;-78
2022/08/22 00:17:16;;;;;;;11.97;8.77;;;;;;;23.36;76.78;96294.41;5086258;28;20223;-78
2022/08/22 00:20:18;;;;;;;15.73;9.93;;;;;;;23.21;78.35;96288.94;5072772;28;20325;-78
2022/08/22 00:23:42;;;;;;;12.93;10.17;;;;;;;23.15;78.49;96286.13;5089867;28;20585;-78
2022/08/22 00:26:43;;;;;;;16.00;11.07;;;;;;;23.11;78.83;96287.44;5086311;28;20201;-78
2022/08/22 00:30:04;;;;;;;12.13;10.47;;;;;;;22.64;80.42;96256.41;5088451;28;20829;-78
2022/08/22 00:33:25;;;;;;;17.63;12.40;;;;;;;22.74;80.18;96280.00;5070023;28;20188;-78
2022/08/22 00:36:50;;;;;;;20.40;12.03;;;;;;;22.78;79.88;96283.13;5089030;28;20225;-77
2022/08/22 00:40:15;;;;;;;16.17;11.03;;;;;;;22.88;79.99;96289.91;5092460;28;20210;-77
2022/08/22 00:43:07;;;;;;;16.13;11.83;;;;;;;23.10;78.78;96293.72;5088597;28;20725;-78
2022/08/22 00:46:23;;;;;;;15.17;11.37;;;;;;;23.30;78.26;96300.31;5087946;28;20188;-77
2022/08/22 00:49:42;;;;;;;22.20;12.50;;;;;;;23.31;77.45;96296.69;5089231;28;20192;-78
2022/08/22 00:52:51;;;;;;;16.37;12.33;;;;;;;22.84;80.11;96303.59;5089074;28;20230;-78
2022/08/22 00:55:47;;;;;;;18.93;12.10;;;;;;;22.67;81.12;96296.66;5087727;28;20283;-78
2022/08/22 00:58:57;;;;;;;14.70;11.70;;;;;;;22.50;82.05;96291.28;5087912;28;20269;-78
2022/08/22 01:02:16;;;;;;;14.67;11.57;;;;;;;22.33;82.59;96286.97;5089185;28;20199;-78
2022/08/22 01:05:16;;;;;;;17.43;11.80;;;;;;;22.36;82.31;96273.44;5088247;28;20290;-76
2022/08/22 01:08:35;;;;;;;15.80;11.27;;;;;;;22.40;81.72;96280.06;5087388;28;20190;-77
2022/08/22 01:11:31;;;;;;;13.90;10.87;;;;;;;22.67;80.08;96274.53;5071728;28;20182;-77
2022/08/22 01:14:44;;;;;;;13.47;10.23;;;;;;;22.79;79.14;96277.72;5088514;28;20203;-78
2022/08/22 01:18:10;;;;;;;13.70;10.70;;;;;;;23.05;78.36;96277.53;5087807;28;20196;-78
2022/08/22 01:21:16;;;;;;;14.87;9.83;;;;;;;23.20;77.13;96279.38;5068966;28;20314;-78
2022/08/22 01:24:34;;;;;;;16.67;10.70;;;;;;;23.29;76.88;96274.88;5087851;28;20216;-78
2022/08/22 01:27:36;;;;;;;15.90;10.67;;;;;;;23.33;76.37;96268.28;5088431;28;20273;-78
2022/08/22 01:30:43;;;;;;;14.87;10.70;;;;;;;23.38;75.09;96266.81;5087651;28;20210;-78
2022/08/22 01:33:42;;;;;;;13.23;10.50;;;;;;;23.23;75.84;96270.25;5087060;28;20194;-78
2022/08/22 01:36:48;;;;;;;14.37;9.77;;;;;;;23.21;75.80;96275.72;5069863;28;20658;-79
2022/08/22 01:40:03;;;;;;;15.20;9.30;;;;;;;23.39;75.67;96278.19;5088652;28;20258;-79
2022/08/22 01:42:47;;;;;;;13.93;11.07;;;;;;;23.39;75.81;96280.84;5086684;28;20666;-78
2022/08/22 01:45:54;;;;;;;13.67;10.83;;;;;;;23.24;76.51;96280.69;5087517;28;20222;-78
2022/08/22 01:49:24;;;;;;;16.53;11.30;;;;;;;23.26;76.85;96277.88;5053636;28;20203;-78
2022/08/22 01:52:28;;;;;;;15.50;10.40;;;;;;;23.28;76.56;96292.56;5087514;28;20223;-78
2022/08/22 01:55:30;;;;;;;14.53;10.23;;;;;;;23.24;76.09;96287.78;5086590;28;20283;-77
2022/08/22 01:58:39;;;;;;;10.50;8.80;;;;;;;;;;5069518;28;20198;-78
2022/08/22 02:01:44;;;;;;;15.50;10.37;;;;;;;22.84;76.68;96285.94;5087360;28;20352;-78
2022/08/22 02:05:06;;;;;;;15.70;10.53;;;;;;;22.35;78.94;96281.53;5082924;28;20221;-77
2022/08/22 02:08:26;;;;;;;15.20;10.13;;;;;;;21.89;80.99;96282.84;5067604;28;20672;-77
2022/08/22 02:11:30;;;;;;;12.47;9.57;;;;;;;21.86;81.21;96291.09;5087454;28;20189;-76
2022/08/22 02:15:01;;;;;;;11.83;9.67;;;;;;;22.04;81.00;96294.47;5086621;28;20298;-78
2022/08/22 02:18:30;;;;;;;13.60;10.80;;;;;;;22.23;79.35;96285.47;5068896;28;20248;-77
2022/08/22 02:21:52;;;;;;;11.60;9.57;;;;;;;22.39;78.63;96286.34;5070110;28;20538;-77
2022/08/22 02:24:56;;;;;;;13.93;9.40;;;;;;;22.57;77.95;96280.91;5085874;28;20223;-76
2022/08/22 02:27:57;;;;;;;11.77;9.07;;;;;;;22.75;77.25;96283.47;5071402;28;20256;-77
2022/08/22 02:31:01;;;;;;;13.53;9.90;;;;;;;22.68;77.47;96288.56;5086770;28;20194;-77
2022/08/22 02:33:45;;;;;;;14.07;9.10;;;;;;;22.62;77.76;96292.69;5085244;28;20658;-77
2022/08/22 02:37:13;;;;;;;11.60;9.23;;;;;;;22.76;77.21;96287.75;5087219;28;20594;-77
2022/08/22 02:40:44;;;;;;;15.57;8.67;;;;;;;22.78;77.26;96293.69;5087836;28;20190;-76
2022/08/22 02:44:05;;;;;;;12.77;9.30;;;;;;;22.70;77.51;96296.31;5086455;28;20562;-77
2022/08/22 02:47:29;;;;;;;17.77;10.07;;;;;;;22.72;77.55;96283.78;5085547;28;20645;-77
2022/08/22 02:50:32;;;;;;;14.80;10.17;;;;;;;22.65;77.69;96297.63;5086242;28;20219;-77
2022/08/22 02:53:38;;;;;;;14.60;9.97;;;;;;;22.71;77.54;96287.44;5071005;28;20228;-77
2022/08/22 02:57:05;;;;;;;16.27;10.53;;;;;;;22.91;76.31;96297.53;5070335;28;20233;-77
2022/08/22 03:00:18;;;;;;;16.43;11.63;;;;;;;22.82;76.94;96289.72;5085471;28;20195;-77
2022/08/22 03:03:44;;;;;;;18.83;11.20;;;;;;;22.47;77.95;96278.44;5085956;28;20183;-77
2022/08/22 03:07:26;;;;;;;14.53;10.93;;;;;;;22.38;78.32;96286.50;5087033;28;20196;-79
2022/08/22 03:10:51;;;;;;;13.43;10.00;;;;;;;22.39;78.65;96291.63;5062848;28;20218;-78
2022/08/22 03:13:57;;;;;;;18.40;10.93;;;;;;;22.54;78.30;96297.94;5085577;28;20600;-78
2022/08/22 03:17:07;;;;;;;17.63;10.87;;;;;;;22.33;78.65;96270.31;5085343;28;20709;-77
2022/08/22 03:20:40;;;;;;;15.77;10.33;;;;;;;22.62;78.08;96311.19;5086374;28;20215;-77
2022/08/22 03:24:10;;;;;;;14.87;10.53;;;;;;;22.76;77.05;96309.69;5068936;28;20191;-78
2022/08/22 03:27:31;;;;;;;13.73;9.13;;;;;;;22.72;77.17;96310.19;5068502;28;20278;-77
2022/08/22 03:30:57;;;;;;;15.83;10.17;;;;;;;22.78;76.83;96322.72;5085099;28;20272;-76
2022/08/22 03:34:36;;;;;;;11.60;9.30;;;;;;;22.57;77.73;96320.50;5065871;28;20682;-76
2022/08/22 03:37:37;;;;;;;14.07;11.07;;;;;;;22.30;78.89;96312.84;5085727;28;20195;-76
2022/08/22 03:40:50;;;;;;;15.23;11.13;;;;;;;22.19;79.14;96318.41;5068305;28;20230;-77
2022/08/22 03:44:10;;;;;;;15.47;10.97;;;;;;;22.26;79.13;96311.50;5083695;28;20585;-76
2022/08/22 03:47:34;;;;;;;22.17;16.47;;;;;;;22.11;79.99;96311.31;5049510;28;20563;-75
2022/08/22 03:50:33;;;;;;;13.47;10.63;;;;;;;21.88;80.49;96312.00;5069778;28;20197;-75
2022/08/22 03:53:37;;;;;;;13.27;10.53;;;;;;;22.06;80.11;96310.09;5086832;28;20652;-76
2022/08/22 03:56:21;;;;;;;19.67;12.03;;;;;;;22.11;80.50;96316.59;5070335;28;20658;-77
2022/08/22 03:59:33;;;;;;;13.90;10.47;;;;;;;22.43;79.99;96321.97;5054131;28;20191;-76
2022/08/22 04:02:21;;;;;;;22.07;11.43;;;;;;;22.59;78.52;96323.84;5071152;28;20286;-75
2022/08/22 04:05:28;;;;;;;15.33;11.63;;;;;;;22.77;77.85;96324.56;5067939;28;20190;-77
2022/08/22 04:08:08;;;;;;;31.87;23.43;;;;;;;22.85;78.58;96334.31;5070279;28;20264;-78
2022/08/22 04:11:17;;;;;;;21.67;12.93;;;;;;;23.01;77.52;96329.88;5087644;28;20204;-79
2022/08/22 04:14:24;;;;;;;16.50;11.47;;;;;;;23.23;77.32;96334.50;5089540;28;20637;-77
2022/08/22 04:17:37;;;;;;;20.13;11.73;;;;;;;23.52;76.00;96331.38;5088090;28;20196;-79
2022/08/22 04:20:44;;;;;;;15.10;9.50;;;;;;;23.45;74.76;96336.50;5058437;28;20831;-77
2022/08/22 04:24:02;;;;;;;15.90;9.50;;;;;;;23.49;74.53;96352.88;5070829;28;20192;-76
2022/08/22 04:27:41;;;;;;;16.93;9.60;;;;;;;23.51;74.58;96356.19;5069094;28;20189;-79
2022/08/22 04:30:45;;;;;;;15.43;9.80;;;;;;;23.47;73.30;96344.28;5067827;28;20194;-76
2022/08/22 04:33:58;;;;;;;12.43;8.50;;;;;;;23.22;72.48;96346.09;5068201;28;20190;-76
2022/08/22 04:36:59;;;;;;;17.10;10.50;;;;;;;22.81;77.43;96351.47;5050567;28;20231;-77
2022/08/22 04:40:30;;;;;;;15.10;10.63;;;;;;;22.79;77.70;96356.09;5052060;28;20195;-79
2022/08/22 04:44:13;;;;;;;15.27;10.73;;;;;;;22.52;79.25;96355.31;5068055;28;20283;-77
2022/08/22 04:47:23;;;;;;;21.90;12.07;;;;;;;22.25;80.00;96360.81;5049736;28;20186;-79
2022/08/22 04:50:47;;;;;;;16.53;11.10;;;;;;;21.73;82.49;96357.38;5068937;28;20195;-78
2022/08/22 04:53:43;;;;;;;14.83;10.83;;;;;;;21.81;83.19;96356.59;5034094;28;20230;-76
2022/08/22 04:57:18;;;;;;;16.13;11.27;;;;;;;21.99;81.59;96354.75;5067728;28;20226;-75
2022/08/22 05:00:40;;;;;;;13.90;9.77;;;;;;;22.06;80.39;96342.59;5067378;28;20188;-76
2022/08/22 05:03:46;;;;;;;15.03;10.03;;;;;;;22.28;79.26;96349.09;5067511;28;20303;-76
2022/08/22 05:07:08;;;;;;;13.63;8.90;;;;;;;22.37;77.45;96354.28;5052599;28;20195;-77
2022/08/22 05:10:37;;;;;;;13.63;8.50;;;;;;;22.39;77.25;96362.88;5068480;28;20248;-78
2022/08/22 05:14:03;;;;;;;12.57;8.93;;;;;;;22.71;76.58;96356.88;5048977;28;20535;-76
2022/08/22 05:17:24;;;;;;;15.63;10.37;;;;;;;22.72;76.81;96358.53;5067587;28;20713;-77
2022/08/22 05:20:46;;;;;;;12.30;9.53;;;;;;;22.69;77.74;96369.41;5050947;28;20192;-77
2022/08/22 05:24:06;;;;;;;12.60;9.53;;;;;;;22.77;77.24;96358.06;5069182;28;20211;-76
2022/08/22 05:27:42;;;;;;;13.53;9.03;;;;;;;22.71;75.71;96334.94;5067622;28;20400;-79
2022/08/22 05:31:04;;;;;;;11.50;8.80;;;;;;;23.26;75.90;96367.72;5067145;28;20665;-78
2022/08/22 05:34:37;;;;;;;9.20;7.87;;;;;;;23.48;74.61;96376.81;5052268;28;20193;-78
2022/08/22 05:37:59;;;;;;;13.33;9.20;;;;;;;23.55;75.06;96383.94;5068186;28;20268;-80
2022/08/22 05:41:30;;;;;;;15.63;10.33;;;;;;;23.59;76.63;96374.69;5069269;28;20202;-79
2022/08/22 05:44:59;;;;;;;12.70;11.27;;;;;;;23.57;78.22;96366.09;5049770;28;20753;-79
2022/08/22 05:47:43;;;;;;;18.23;11.90;;;;;;;23.58;78.83;96372.19;5066755;28;20251;-78
2022/08/22 05:50:24;;;;;;;18.40;13.90;;;;;;;23.82;77.20;96383.56;5067553;28;20270;-79
2022/08/22 05:53:15;;;;;;;19.20;13.17;;;;;;;23.79;77.63;96383.09;5052499;28;20225;-79
2022/08/22 06:00:32;;;;;;;18.90;14.80;;;;;;;24.02;75.47;96378.75;5048155;28;20224;-80
2022/08/22 06:03:48;;;;;;;14.43;11.80;;;;;;;24.10;73.66;96379.59;5051873;28;20189;-79
2022/08/22 06:07:15;;;;;;;14.93;10.43;;;;;;;24.23;72.44;96401.03;5066952;28;20190;-77
2022/08/22 06:10:16;;;;;;;18.17;12.60;;;;;;;24.34;73.35;96401.69;5031905;28;20190;-80
2022/08/22 06:13:59;;;;;;;30.60;18.67;;;;;;;24.31;73.28;96402.03;5051541;28;20289;-79
2022/08/22 06:17:21;;;;;;;16.57;11.33;;;;;;;24.20;73.93;96401.38;5049079;28;20253;-78
2022/08/22 06:20:45;;;;;;;17.30;9.57;;;;;;;24.15;72.65;96403.72;5067865;28;20194;-79
2022/08/22 06:24:11;;;;;;;16.07;10.50;;;;;;;24.26;71.85;96402.53;5049484;28;20189;-79
2022/08/22 06:27:32;;;;;;;17.97;11.53;;;;;;;24.32;72.76;96403.69;5031564;28;20284;-78
2022/08/22 06:30:53;;;;;;;16.33;12.83;;;;;;;24.39;72.84;96405.47;5066549;28;20279;-76
2022/08/22 06:33:58;;;;;;;15.47;10.87;;;;;;;24.77;71.18;96404.69;5067180;28;20220;-77
2022/08/22 06:37:18;;;;;;;16.20;11.43;;;;;;;24.95;70.95;96402.63;5051808;28;20308;-77
2022/08/22 06:40:42;;;;;;;16.87;12.40;;;;;;;24.93;70.70;96398.47;5051275;28;20192;-78
2022/08/22 06:44:07;;;;;;;14.37;11.13;;;;;;;24.55;69.81;96365.69;5050470;28;20190;-79
2022/08/22 06:47:39;;;;;;;14.53;10.33;;;;;;;24.71;69.42;96399.25;5048749;28;20202;-76
2022/08/22 06:51:07;;;;;;;16.70;10.87;;;;;;;25.02;69.93;96392.94;5067116;28;20207;-76
2022/08/22 06:54:29;;;;;;;16.40;10.80;;;;;;;25.33;68.46;96402.69;5068102;28;20258;-79
2022/08/22 06:57:56;;;;;;;17.83;12.00;;;;;;;25.33;68.11;96384.97;5067293;28;20204;-77
2022/08/22 07:01:54;;;;;;;16.80;12.57;;;;;;;25.63;67.86;96391.22;5064775;28;20615;-77
2022/08/22 07:05:16;;;;;;;18.17;10.70;;;;;;;25.92;66.87;96404.56;5018037;28;20195;-77
2022/08/22 07:08:38;;;;;;;17.47;10.53;;;;;;;26.06;65.30;96413.56;5049840;28;20273;-77
2022/08/22 07:11:59;;;;;;;16.90;11.10;;;;;;;26.03;65.08;96408.63;5067278;28;20281;-76
2022/08/22 07:15:21;;;;;;;13.77;10.63;;;;;;;25.91;65.53;96413.53;5047179;28;20197;-76
2022/08/22 07:18:42;;;;;;;16.00;10.77;;;;;;;26.08;64.11;96419.53;5065255;28;20250;-78
2022/08/22 07:22:07;;;;;;;22.97;11.37;;;;;;;26.07;64.65;96421.34;5068709;28;20569;-79
2022/08/22 07:25:32;;;;;;;23.83;17.87;;;;;;;26.02;64.46;96417.56;5051306;28;20272;-79
2022/08/22 07:29:05;;;;;;;21.90;10.93;;;;;;;26.07;64.10;96416.06;5052742;28;20188;-77
2022/08/22 07:32:42;;;;;;;18.43;9.50;;;;;;;26.15;63.76;96410.66;5051184;28;20200;-77
2022/08/22 07:36:19;;;;;;;18.10;10.30;;;;;;;26.18;64.23;96415.63;5068865;28;20227;-79
2022/08/22 07:39:58;;;;;;;19.30;9.17;;;;;;;26.32;63.01;96416.63;5072265;28;20197;-79
2022/08/22 07:43:08;;;;;;;19.20;9.50;;;;;;;26.32;62.93;96420.09;4969299;28;20299;-76
2022/08/22 07:46:40;;;;;;;12.70;9.47;;;;;;;26.51;61.79;96413.44;4971179;28;20715;-77
2022/08/22 07:49:50;;;;;;;18.23;9.13;;;;;;;26.62;61.39;96418.28;5069585;28;20189;-78
2022/08/22 07:53:13;;;;;;;17.53;9.90;;;;;;;26.55;60.33;96412.06;5067010;28;20323;-81
2022/08/22 07:56:36;;;;;;;15.23;10.63;;;;;;;26.42;61.67;96398.63;5070332;28;20239;-77
2022/08/22 08:00:03;;;;;;;14.03;9.73;;;;;;;26.67;61.33;96429.19;5070098;28;20236;-77
2022/08/22 08:03:28;;;;;;;19.30;11.07;;;;;;;26.70;61.40;96434.13;5049652;28;20755;-78
2022/08/22 08:06:51;;;;;;;17.60;9.40;;;;;;;26.85;59.79;96424.34;5026363;28;20203;-78
2022/08/22 08:10:36;;;;;;;14.97;9.07;;;;;;;27.03;59.68;96423.94;5027179;28;20222;-77
2022/08/22 08:14:02;;;;;;;11.23;8.17;;;;;;;27.02;59.20;96425.75;5027871;28;20275;-78
2022/08/22 08:17:04;;;;;;;12.30;7.87;;;;;;;26.96;59.20;96410.56;5026870;28;20218;-77
2022/08/22 08:20:25;;;;;;;13.60;9.30;;;;;;;27.14;58.41;96412.84;5008858;28;20203;-79
2022/08/22 08:23:46;;;;;;;13.60;7.70;;;;;;;27.18;57.65;96422.88;5025693;28;20189;-78
2022/08/22 08:30:28;;;;;;;13.63;9.57;;;;;;;27.52;56.79;96426.75;5028534;28;20674;-77
2022/08/22 08:33:52;;;;;;;10.40;8.80;;;;;;;27.67;57.15;96417.69;5028842;28;20848;-77
2022/08/22 08:37:44;;;;;;;11.30;7.93;;;;;;;27.66;56.22;96416.03;5046561;28;20781;-78
2022/08/22 08:40:29;;;;;;;10.47;8.10;;;;;;;27.70;56.04;96411.19;5068357;28;20201;-80
2022/08/22 08:43:37;;;;;;;13.27;7.83;;;;;;;27.85;55.06;96409.25;5051901;28;20644;-77
2022/08/22 08:46:34;;;;;;;8.97;7.10;;;;;;;27.88;55.19;96411.53;5069730;28;20570;-78
2022/08/22 08:50:03;;;;;;;14.70;7.87;;;;;;;28.17;53.49;96411.38;5068456;28;20681;-78
2022/08/22 08:53:23;;;;;;;8.77;7.17;;;;;;;28.29;53.76;96417.00;5069165;28;20316;-77
2022/08/22 08:56:28;;;;;;;10.70;7.50;;;;;;;28.63;52.72;96409.84;5051387;28;20308;-80
2022/08/22 08:59:55;;;;;;;12.47;7.70;;;;;;;28.54;53.41;96407.50;5070080;28;20191;-81
2022/08/22 09:03:01;;;;;;;8.80;7.30;;;;;;;28.71;52.07;96406.19;4986304;28;20331;-77
2022/08/22 09:06:08;;;;;;;11.20;7.40;;;;;;;28.78;52.08;96397.22;5067623;28;20201;-79
2022/08/22 09:09:36;;;;;;;10.80;8.13;;;;;;;28.98;51.94;96389.28;5068623;28;20642;-77
2022/08/22 09:12:42;;;;;;;9.00;6.93;;;;;;;28.91;51.88;96393.78;5068559;28;20215;-82
2022/08/22 09:15:59;;;;;;;12.77;8.87;;;;;;;28.91;51.58;96383.13;5068687;28;20794;-78
2022/08/22 09:19:34;;;;;;;12.40;7.10;;;;;;;29.20;51.01;96384.66;5068416;28;20223;-80
2022/08/22 09:23:00;;;;;;;15.03;7.47;;;;;;;29.69;49.72;96382.50;4986995;28;20200;-78
2022/08/22 09:26:14;;;;;;;9.30;6.47;;;;;;;28.87;49.63;96388.00;5068640;28;20228;-78
2022/08/22 09:29:24;;;;;;;14.43;9.13;;;;;;;28.83;50.58;96375.31;5049349;28;20255;-80
2022/08/22 09:32:33;;;;;;;11.47;6.60;;;;;;;28.80;50.16;96375.69;5067480;28;20206;-79
2022/08/22 09:35:32;;;;;;;9.53;6.47;;;;;;;29.13;49.08;96376.63;5068856;28;20583;-79
2022/08/22 15:33:41;;;;;;;14.87;11.23;;;;;;;24.94;82.01;96323.28;5061514;28;20239;-79
2022/08/22 15:36:23;;;;;;;14.47;11.47;;;;;;;24.85;81.34;96324.34;5084636;28;20291;-80
2022/08/22 15:38:55;;;;;;;15.93;11.10;;;;;;;24.90;80.91;96314.88;5068909;28;20199;-79
2022/08/22 15:41:32;;;;;;;14.87;11.97;;;;;;;24.95;81.14;96322.28;5068347;28;20209;-80
2022/08/22 15:44:19;;;;;;;16.40;13.30;;;;;;;24.94;80.99;96320.63;5052893;28;20210;-79
2022/08/22 15:47:24;;;;;;;16.33;12.73;;;;;;;24.94;81.48;96325.94;5089383;28;20273;-79
2022/08/22 15:50:01;;;;;;;15.07;11.40;;;;;;;25.01;81.17;96318.94;5055408;28;20203;-79
2022/08/22 15:53:12;;;;;;;14.07;11.33;;;;;;;24.97;81.50;96317.66;5073376;28;20211;-79
2022/08/22 15:56:03;;;;;;;15.67;11.90;;;;;;;24.93;81.84;96319.00;5073185;28;20225;-80
2022/08/22 15:58:36;;;;;;;18.23;11.63;;;;;;;24.95;81.65;96311.69;5071392;28;20246;-78
2022/08/22 16:01:21;;;;;;;18.30;11.40;;;;;;;24.97;81.16;96330.91;5091059;28;20750;-79
2022/08/22 16:03:55;;;;;;;18.03;12.83;;;;;;;24.98;80.56;96322.75;5089409;28;20610;-79
2022/08/22 16:06:54;;;;;;;14.57;11.50;;;;;;;24.92;81.29;96325.28;5089694;28;20189;-78
2022/08/22 16:09:34;;;;;;;12.77;11.43;;;;;;;24.88;81.13;96326.63;5072378;28;20207;-79
2022/08/22 16:12:26;;;;;;;13.43;10.67;;;;;;;24.77;81.18;96313.81;5071079;28;20199;-79
2022/08/22 16:14:55;;;;;;;15.13;11.10;;;;;;;24.90;81.17;96314.03;5090257;28;20233;-80
2022/08/22 16:17:45;;;;;;;15.43;11.40;;;;;;;24.90;81.26;96332.59;5090173;28;20362;-79
2022/08/22 16:20:20;;;;;;;19.37;11.20;;;;;;;24.87;80.67;96325.81;5070473;28;20248;-78
2022/08/22 16:23:00;;;;;;;14.00;10.27;;;;;;;24.72;81.49;96324.06;5090479;28;20596;-79
2022/08/22 16:25:44;;;;;;;16.90;11.67;;;;;;;24.75;81.04;96331.72;5071900;28;20226;-79
2022/08/22 16:28:25;;;;;;;14.50;10.70;;;;;;;24.72;81.58;96342.59;5070926;28;20204;-79
2022/08/22 16:31:28;;;;;;;14.07;10.83;;;;;;;24.78;81.03;96337.47;5089978;28;20677;-80
2022/08/22 16:34:15;;;;;;;12.70;10.87;;;;;;;24.78;81.84;96337.47;5070652;28;20240;-79
2022/08/22 16:37:10;;;;;;;14.20;11.03;;;;;;;24.84;81.18;96342.06;5055209;28;20663;-79
2022/08/22 16:39:44;;;;;;;16.33;11.27;;;;;;;24.77;81.86;96345.59;5090370;28;20775;-78
2022/08/22 16:42:20;;;;;;;16.20;12.00;;;;;;;24.75;82.23;96342.31;5088515;28;20236;-80
2022/08/22 16:45:04;;;;;;;16.73;12.20;;;;;;;24.68;81.37;96342.13;5090540;28;20692;-78
2022/08/22 16:47:41;;;;;;;14.40;12.07;;;;;;;24.72;81.59;96347.91;5072347;28;20202;-79
2022/08/22 16:50:21;;;;;;;18.47;11.80;;;;;;;24.61;82.33;96346.47;5088874;28;20209;-79
2022/08/22 16:53:28;;;;;;;17.70;13.13;;;;;;;24.68;82.47;96354.53;5089859;28;20212;-79
2022/08/22 16:56:26;;;;;;;17.20;12.67;;;;;;;24.61;82.58;96345.63;5071039;28;20275;-78
2022/08/22 16:59:16;;;;;;;17.83;12.33;;;;;;;24.60;83.16;96344.00;5069788;28;20220;-79
2022/08/22 17:02:37;;;;;;;15.77;12.73;;;;;;;24.47;84.11;96349.00;5056224;28;20332;-77
2022/08/22 17:05:25;;;;;;;20.73;15.37;;;;;;;24.50;84.86;96344.22;4996717;28;20260;-81
2022/08/22 17:08:23;;;;;;;19.90;13.90;;;;;;;24.44;84.65;96352.81;5087465;28;20695;-80
2022/08/22 17:11:03;;;;;;;17.37;13.37;;;;;;;24.44;84.79;96346.72;5071999;28;20352;-81
2022/08/22 17:14:01;;;;;;;22.50;13.97;;;;;;;24.53;84.05;96358.91;5071889;28;20282;-75
2022/08/22 17:16:52;;;;;;;20.80;14.20;;;;;;;24.56;84.21;96375.31;5087693;28;20256;-77
2022/08/22 17:19:50;;;;;;;19.60;13.17;;;;;;;24.55;83.44;96378.09;5071602;28;20252;-76
2022/08/22 17:22:43;;;;;;;14.43;12.40;;;;;;;24.56;82.48;96379.75;5085242;28;20204;-76
2022/08/22 17:25:45;;;;;;;14.17;12.10;;;;;;;24.47;81.99;96381.63;5081477;28;20197;-77
2022/08/22 17:28:25;;;;;;;15.27;12.27;;;;;;;24.43;81.59;96390.91;5088885;28;20218;-78
2022/08/22 17:31:07;;;;;;;17.57;13.83;;;;;;;24.33;81.73;96387.63;5070532;28;20699;-78
2022/08/22 17:33:39;;;;;;;16.80;12.50;;;;;;;24.14;81.96;96395.94;5087359;28;20275;-80
2022/08/22 17:36:25;;;;;;;19.80;13.23;;;;;;;24.13;82.55;96396.97;5087446;28;20309;-81
2022/08/22 17:39:26;;;;;;;15.63;12.40;;;;;;;24.04;83.16;96398.78;5076908;28;20213;-80
2022/08/22 17:42:25;;;;;;;16.90;12.97;;;;;;;23.96;83.51;96393.47;5069316;28;20274;-80
2022/08/22 17:45:10;;;;;;;20.93;14.00;;;;;;;23.98;83.94;96394.16;5055114;28;20527;-77
2022/08/22 17:47:59;;;;;;;20.43;13.97;;;;;;;24.03;83.69;96390.97;5088215;28;20225;-78
2022/08/22 17:50:33;;;;;;;29.57;15.53;;;;;;;24.07;82.91;96405.56;5068010;28;20792;-78
2022/08/22 17:53:27;;;;;;;20.87;14.93;;;;;;;24.17;82.78;96406.22;5068752;28;20190;-78
2022/08/22 17:55:56;;;;;;;22.97;14.07;;;;;;;24.27;82.04;96416.59;5074297;28;20218;-78
2022/08/22 17:59:12;;;;;;;16.13;13.10;;;;;;;24.23;81.69;96414.28;5088024;28;20204;-78
2022/08/22 18:01:57;;;;;;;20.40;13.83;;;;;;;24.27;81.68;96417.44;5088561;28;20599;-78
2022/08/22 18:05:05;;;;;;;21.80;13.53;;;;;;;24.21;82.67;96413.63;5052640;28;20300;-77
2022/08/22 18:07:55;;;;;;;20.43;13.80;;;;;;;24.14;82.58;96396.78;5088740;28;20283;-77
2022/08/22 18:10:50;;;;;;;20.50;13.23;;;;;;;24.00;82.03;96401.91;5069115;28;20199;-77
2022/08/22 18:13:36;;;;;;;14.90;11.60;;;;;;;23.92;81.67;96402.75;5069018;28;20291;-79
2022/08/22 18:16:11;;;;;;;13.20;11.13;;;;;;;24.01;82.34;96411.47;5070918;28;20223;-77
2022/08/22 18:18:52;;;;;;;19.67;12.90;;;;;;;24.07;81.92;96401.09;5087797;28;20276;-77
2022/08/22 18:21:34;;;;;;;18.00;12.80;;;;;;;24.12;82.22;96425.22;5087179;28;20186;-78
2022/08/22 18:24:08;;;;;;;19.10;12.60;;;;;;;24.11;82.17;96428.84;5068661;28;20212;-77
2022/08/22 18:27:25;;;;;;;20.70;12.33;;;;;;;24.09;82.35;96430.84;5067238;28;20675;-79
2022/08/22 18:30:12;;;;;;;19.23;11.60;;;;;;;24.11;82.64;96418.28;5026966;28;20202;-78
2022/08/22 18:33:30;;;;;;;15.30;11.60;;;;;;;24.15;81.89;96421.44;5070949;28;21018;-79
2022/08/22 18:36:08;;;;;;;13.20;10.73;;;;;;;24.08;82.21;96423.91;5033462;28;20205;-77
2022/08/22 18:39:20;;;;;;;21.20;12.00;;;;;;;24.20;81.51;96421.72;5055664;28;20216;-78
2022/08/22 18:42:52;;;;;;;18.63;12.40;;;;;;;24.07;82.25;96442.63;5049785;28;20208;-77
2022/08/22 18:45:43;;;;;;;21.10;12.20;;;;;;;24.13;81.89;96437.44;5067126;28;20197;-76
2022/08/22 18:49:20;;;;;;;15.07;12.20;;;;;;;24.07;82.47;96437.31;5049967;28;20221;-78
2022/08/22 18:52:08;;;;;;;17.63;11.60;;;;;;;24.10;82.40;96448.38;5047657;28;20233;-78
2022/08/22 18:55:29;;;;;;;16.60;12.13;;;;;;;23.92;83.25;96466.25;5050918;28;20682;-78
2022/08/22 18:58:48;;;;;;;14.20;10.80;;;;;;;23.69;83.63;96491.69;5074286;28;20201;-74
2022/08/22 19:02:01;;;;;;;16.23;10.93;;;;;;;23.60;83.63;96500.59;5085647;28;20262;-75
2022/08/22 19:05:14;;;;;;;14.83;10.67;;;;;;;23.58;82.95;96484.06;5067656;28;20300;-73
2022/08/22 19:08:27;;;;;;;14.27;10.97;;;;;;;23.64;82.77;96491.34;5070615;28;20230;-75
2022/08/22 19:11:45;;;;;;;12.27;10.50;;;;;;;23.71;82.94;96502.91;5062895;28;20224;-79
2022/08/22 19:14:31;;;;;;;15.77;10.77;;;;;;;23.74;82.77;96507.88;5067449;28;20285;-79
2022/08/22 19:17:50;;;;;;;17.33;12.13;;;;;;;23.19;85.04;96509.38;5069680;28;20392;-72
2022/08/22 19:24:28;;;;;;;23.80;13.73;;;;;;;22.72;89.60;96513.47;5073338;28;20223;-76
2022/08/22 19:27:08;;;;;;;18.13;12.50;;;;;;;22.52;88.95;96515.50;5089516;28;20203;-77
2022/08/22 19:30:33;;;;;;;21.40;13.17;;;;;;;22.68;88.43;96518.25;5089946;28;20677;-77
2022/08/22 19:33:57;;;;;;;20.57;14.70;;;;;;;22.70;88.28;96513.63;5088898;28;20612;-74
2022/08/22 19:37:10;;;;;;;15.67;11.47;;;;;;;22.71;88.10;96527.69;5072052;28;20623;-75
2022/08/22 19:40:31;;;;;;;13.60;11.50;;;;;;;22.46;86.86;96542.50;5073279;28;20673;-79
2022/08/22 19:43:27;;;;;;;15.60;10.93;;;;;;;22.51;87.04;96525.22;5089050;28;20260;-75
2022/08/22 19:46:53;;;;;;;17.17;10.73;;;;;;;22.90;86.17;96527.41;5091792;28;20188;-73
2022/08/22 19:49:57;;;;;;;16.83;11.23;;;;;;;23.08;85.96;96517.63;5089282;28;20635;-78
2022/08/22 19:52:58;;;;;;;14.37;11.10;;;;;;;23.28;84.73;96526.91;5073036;28;20608;-77
2022/08/22 19:56:31;;;;;;;15.80;10.83;;;;;;;23.41;83.98;96514.91;5089715;28;20203;-77
2022/08/22 20:00:00;;;;;;;13.17;11.03;;;;;;;23.51;84.13;96503.38;5089940;28;20199;-77
2022/08/22 20:03:17;;;;;;;18.07;12.80;;;;;;;23.34;83.70;96497.25;5089500;28;20211;-76
2022/08/22 20:06:44;;;;;;;17.57;11.60;;;;;;;23.12;85.35;96495.16;5088473;28;20209;-76
2022/08/22 20:09:55;;;;;;;16.43;11.97;;;;;;;23.27;85.47;96502.31;5088305;28;20199;-77
2022/08/22 20:13:18;;;;;;;15.30;12.23;;;;;;;23.28;84.65;96498.69;5089521;28;20284;-77
2022/08/22 20:16:46;;;;;;;15.17;11.00;;;;;;;23.31;84.57;96510.72;5089366;28;20207;-78
2022/08/22 20:20:19;;;;;;;16.13;11.60;;;;;;;23.41;83.85;96522.03;5087305;28;20209;-77
2022/08/22 20:23:45;;;;;;;15.90;11.63;;;;;;;23.38;84.23;96512.63;5061376;28;20301;-77
2022/08/22 20:27:07;;;;;;;15.17;11.03;;;;;;;23.42;83.73;96500.72;5049972;28;20205;-77
2022/08/22 20:30:23;;;;;;;15.13;10.63;;;;;;;23.41;83.54;96516.75;5071551;28;20206;-77
2022/08/22 20:33:58;;;;;;;14.17;10.93;;;;;;;23.47;82.62;96518.75;5083819;28;20315;-77
2022/08/22 20:37:19;;;;;;;14.80;11.33;;;;;;;23.43;83.70;96517.44;5070172;28;20234;-78
2022/08/22 20:40:22;;;;;;;15.23;11.83;;;;;;;23.26;84.05;96518.34;5071839;28;20250;-76